Airfield :
LOGIN :

Register | Disclaimer

   EN    FR    IT 

 










Legend :    VFR   Marginal VFR   IFR   Intensive IFR   Very Intensive IFR
Visi :
Ceiling :
>= 8 km
>= 3000ft
5 to 8 km
1000 to 3000 ft
1500m to 5 km
500 to 1000 ft
800 to 1500m
200 to 500 ft
< 800m
< 200 ft
Symbols :   Thunderstorms  Fog  Heavy snow  Heavy precipitations  Wind > 20 kt
SIGMETs :     Misc.  Thunderstorms  Icing  Turbulence  Mountain Waves  Volcanic Ashes






- Airport Elevation : 3 ft
- IATA code : LWR


EHLW - Leuuwarden Air Base

CURRENT METAR :
  • 190825Z AUTO 36009KT 9999 FEW038 BKN052 BKN060 05/02 Q1036 BLU

EXPIRED METARs :
  • 190812Z AUTO 01010KT 9999 FEW015CB SCT030 BKN049 05/02 Q1036 BLU
  • 190803Z AUTO 03016KT 340V050 9999 -RA FEW015CB SCT024 BKN028 05/02 Q1036 WHT
  • 190747Z AUTO 35016KT 320V020 3800 RA FEW015CB SCT032 BKN041 05/02 Q1036 GRN
  • 190725Z AUTO 35009KT 9999 FEW067 05/02 Q1035 BLU
  • 190659Z AUTO 01014KT 330V030 9999 -RA FEW022 SCT028 BKN033 05/02 Q1034 BLU
  • 190625Z AUTO 35010KT 9999 NCD 05/02 Q1034 BLU
  • 190555Z AUTO 35010KT 9999 NCD 04/02 Q1033 BLU

TAF TAF EHLW
Valid from the 19 at 06:00 until the 19 at 18:00 UTC


190509Z 1906/1918 35012KT 9999 SCT025
TEMPO 1902/1914 35012G24KT FEW012 SCT020CB



MET'MAP, your aeronautical weather chart ! - Copyright ORBIFLY December 2007 - Disclaimer

ORBIFLY MET'MAP TEAM :

Programming & Development : Alexandra Zaïnal
Concept & original design : Baudouin d'Aumeries
Assistance for programming : Marc-Olivier Méhu
Technical & hardware support : Manuel Goepfert

Contact : metmap@orbifly.com




SOURCES & CREDITS :

   NOAA